sensor_id;sensor_type;location;lat;lon;timestamp;P1;durP1;ratioP1;P2;durP2;ratioP2
11996;SDS011;6058;48.704;9.474;2023-03-13T00:01:09;6.10;;;4.03;;
11996;SDS011;6058;48.704;9.474;2023-03-13T00:03:37;8.13;;;3.77;;
11996;SDS011;6058;48.704;9.474;2023-03-13T00:06:06;7.83;;;3.83;;
11996;SDS011;6058;48.704;9.474;2023-03-13T00:08:33;7.73;;;4.07;;
11996;SDS011;6058;48.704;9.474;2023-03-13T00:11:01;4.60;;;3.30;;
11996;SDS011;6058;48.704;9.474;2023-03-13T00:13:28;7.03;;;4.00;;
11996;SDS011;6058;48.704;9.474;2023-03-13T00:15:59;8.27;;;3.70;;
11996;SDS011;6058;48.704;9.474;2023-03-13T00:18:26;9.13;;;3.47;;
11996;SDS011;6058;48.704;9.474;2023-03-13T00:20:56;7.50;;;3.70;;
11996;SDS011;6058;48.704;9.474;2023-03-13T00:23:25;4.77;;;2.90;;
11996;SDS011;6058;48.704;9.474;2023-03-13T00:25:55;8.67;;;3.53;;
11996;SDS011;6058;48.704;9.474;2023-03-13T00:28:22;5.67;;;3.20;;
11996;SDS011;6058;48.704;9.474;2023-03-13T00:30:49;6.40;;;3.33;;
11996;SDS011;6058;48.704;9.474;2023-03-13T00:33:16;8.87;;;3.57;;
11996;SDS011;6058;48.704;9.474;2023-03-13T00:35:43;7.27;;;3.50;;
11996;SDS011;6058;48.704;9.474;2023-03-13T00:38:10;5.90;;;3.57;;
11996;SDS011;6058;48.704;9.474;2023-03-13T00:40:39;6.60;;;3.67;;
11996;SDS011;6058;48.704;9.474;2023-03-13T00:43:06;8.17;;;3.90;;
11996;SDS011;6058;48.704;9.474;2023-03-13T00:45:33;11.07;;;4.33;;
11996;SDS011;6058;48.704;9.474;2023-03-13T00:48:00;8.67;;;3.80;;
11996;SDS011;6058;48.704;9.474;2023-03-13T00:50:27;5.20;;;3.67;;
11996;SDS011;6058;48.704;9.474;2023-03-13T00:52:54;8.00;;;3.47;;
11996;SDS011;6058;48.704;9.474;2023-03-13T00:55:21;6.10;;;3.80;;
11996;SDS011;6058;48.704;9.474;2023-03-13T00:57:50;6.77;;;3.67;;
11996;SDS011;6058;48.704;9.474;2023-03-13T01:00:17;9.37;;;3.70;;
11996;SDS011;6058;48.704;9.474;2023-03-13T01:02:44;8.33;;;4.07;;
11996;SDS011;6058;48.704;9.474;2023-03-13T01:05:12;9.20;;;4.27;;
11996;SDS011;6058;48.704;9.474;2023-03-13T01:07:39;5.63;;;3.97;;
11996;SDS011;6058;48.704;9.474;2023-03-13T01:10:06;6.80;;;3.60;;
11996;SDS011;6058;48.704;9.474;2023-03-13T01:12:33;8.67;;;4.53;;
11996;SDS011;6058;48.704;9.474;2023-03-13T01:15:02;7.43;;;3.90;;
11996;SDS011;6058;48.704;9.474;2023-03-13T01:17:29;7.60;;;3.97;;
11996;SDS011;6058;48.704;9.474;2023-03-13T01:19:56;5.73;;;3.93;;
11996;SDS011;6058;48.704;9.474;2023-03-13T01:22:23;8.70;;;4.60;;
11996;SDS011;6058;48.704;9.474;2023-03-13T01:24:51;6.93;;;3.90;;
11996;SDS011;6058;48.704;9.474;2023-03-13T01:27:18;14.77;;;5.20;;
11996;SDS011;6058;48.704;9.474;2023-03-13T01:29:45;8.63;;;4.27;;
11996;SDS011;6058;48.704;9.474;2023-03-13T01:32:14;7.87;;;4.03;;
11996;SDS011;6058;48.704;9.474;2023-03-13T01:34:41;8.87;;;4.00;;
11996;SDS011;6058;48.704;9.474;2023-03-13T01:37:08;8.00;;;4.27;;
11996;SDS011;6058;48.704;9.474;2023-03-13T01:39:35;8.57;;;4.50;;
11996;SDS011;6058;48.704;9.474;2023-03-13T01:42:02;6.20;;;3.70;;
11996;SDS011;6058;48.704;9.474;2023-03-13T01:44:47;7.73;;;3.93;;
11996;SDS011;6058;48.704;9.474;2023-03-13T01:47:16;6.33;;;3.63;;
11996;SDS011;6058;48.704;9.474;2023-03-13T01:49:43;7.50;;;4.00;;
11996;SDS011;6058;48.704;9.474;2023-03-13T01:52:12;8.73;;;3.60;;
11996;SDS011;6058;48.704;9.474;2023-03-13T01:54:41;9.50;;;4.60;;
11996;SDS011;6058;48.704;9.474;2023-03-13T01:57:09;8.53;;;3.63;;
11996;SDS011;6058;48.704;9.474;2023-03-13T01:59:39;8.27;;;3.80;;
11996;SDS011;6058;48.704;9.474;2023-03-13T02:02:08;6.53;;;3.93;;
11996;SDS011;6058;48.704;9.474;2023-03-13T02:04:37;6.83;;;3.90;;
11996;SDS011;6058;48.704;9.474;2023-03-13T02:07:06;9.87;;;3.60;;
11996;SDS011;6058;48.704;9.474;2023-03-13T02:09:36;5.67;;;3.90;;
11996;SDS011;6058;48.704;9.474;2023-03-13T02:12:06;10.37;;;4.83;;
11996;SDS011;6058;48.704;9.474;2023-03-13T02:14:35;7.63;;;4.20;;
11996;SDS011;6058;48.704;9.474;2023-03-13T02:17:03;8.23;;;3.80;;
11996;SDS011;6058;48.704;9.474;2023-03-13T02:19:32;8.97;;;3.87;;
11996;SDS011;6058;48.704;9.474;2023-03-13T02:22:04;7.07;;;4.03;;
11996;SDS011;6058;48.704;9.474;2023-03-13T02:24:33;8.83;;;4.00;;
11996;SDS011;6058;48.704;9.474;2023-03-13T02:27:04;9.50;;;3.93;;
11996;SDS011;6058;48.704;9.474;2023-03-13T02:29:31;9.63;;;4.27;;
11996;SDS011;6058;48.704;9.474;2023-03-13T02:31:59;9.10;;;4.20;;
11996;SDS011;6058;48.704;9.474;2023-03-13T02:34:27;6.77;;;4.10;;
11996;SDS011;6058;48.704;9.474;2023-03-13T02:36:55;8.17;;;4.23;;
11996;SDS011;6058;48.704;9.474;2023-03-13T02:39:24;12.83;;;4.70;;
11996;SDS011;6058;48.704;9.474;2023-03-13T02:41:52;6.00;;;3.93;;
11996;SDS011;6058;48.704;9.474;2023-03-13T02:44:21;7.73;;;3.50;;
11996;SDS011;6058;48.704;9.474;2023-03-13T02:46:49;11.00;;;3.80;;
11996;SDS011;6058;48.704;9.474;2023-03-13T02:49:18;11.77;;;4.37;;
11996;SDS011;6058;48.704;9.474;2023-03-13T02:51:46;7.70;;;3.90;;
11996;SDS011;6058;48.704;9.474;2023-03-13T02:54:15;8.43;;;3.43;;
11996;SDS011;6058;48.704;9.474;2023-03-13T02:56:44;10.80;;;3.40;;
11996;SDS011;6058;48.704;9.474;2023-03-13T02:59:13;7.53;;;3.67;;
11996;SDS011;6058;48.704;9.474;2023-03-13T03:01:41;8.10;;;4.40;;
11996;SDS011;6058;48.704;9.474;2023-03-13T03:04:08;6.17;;;3.17;;
11996;SDS011;6058;48.704;9.474;2023-03-13T03:06:35;6.00;;;3.27;;
11996;SDS011;6058;48.704;9.474;2023-03-13T03:09:02;7.33;;;4.27;;
11996;SDS011;6058;48.704;9.474;2023-03-13T03:11:30;10.63;;;3.27;;
11996;SDS011;6058;48.704;9.474;2023-03-13T03:13:57;7.03;;;3.40;;
11996;SDS011;6058;48.704;9.474;2023-03-13T03:16:24;7.20;;;2.87;;
11996;SDS011;6058;48.704;9.474;2023-03-13T03:18:53;7.63;;;2.93;;
11996;SDS011;6058;48.704;9.474;2023-03-13T03:21:20;10.43;;;3.10;;
11996;SDS011;6058;48.704;9.474;2023-03-13T03:23:48;5.83;;;3.37;;
11996;SDS011;6058;48.704;9.474;2023-03-13T03:26:15;8.47;;;3.57;;
11996;SDS011;6058;48.704;9.474;2023-03-13T03:28:42;6.60;;;3.43;;
11996;SDS011;6058;48.704;9.474;2023-03-13T03:31:10;8.47;;;3.10;;
11996;SDS011;6058;48.704;9.474;2023-03-13T03:33:45;5.33;;;2.73;;
11996;SDS011;6058;48.704;9.474;2023-03-13T03:36:33;6.80;;;3.10;;
11996;SDS011;6058;48.704;9.474;2023-03-13T03:39:17;8.40;;;3.83;;
11996;SDS011;6058;48.704;9.474;2023-03-13T03:41:52;7.50;;;2.70;;
11996;SDS011;6058;48.704;9.474;2023-03-13T03:44:37;7.63;;;3.30;;
11996;SDS011;6058;48.704;9.474;2023-03-13T03:47:07;9.27;;;3.23;;
11996;SDS011;6058;48.704;9.474;2023-03-13T03:49:34;10.73;;;2.87;;
11996;SDS011;6058;48.704;9.474;2023-03-13T03:52:03;8.43;;;3.03;;
11996;SDS011;6058;48.704;9.474;2023-03-13T03:54:30;8.17;;;3.77;;
11996;SDS011;6058;48.704;9.474;2023-03-13T03:56:57;5.30;;;3.00;;
11996;SDS011;6058;48.704;9.474;2023-03-13T03:59:24;3.90;;;2.70;;
11996;SDS011;6058;48.704;9.474;2023-03-13T04:01:51;5.17;;;2.97;;
11996;SDS011;6058;48.704;9.474;2023-03-13T04:04:19;5.33;;;3.27;;
11996;SDS011;6058;48.704;9.474;2023-03-13T04:06:46;8.30;;;3.07;;
11996;SDS011;6058;48.704;9.474;2023-03-13T04:09:14;5.67;;;3.03;;
11996;SDS011;6058;48.704;9.474;2023-03-13T04:14:09;4.20;;;2.83;;
11996;SDS011;6058;48.704;9.474;2023-03-13T04:16:37;9.03;;;2.50;;
11996;SDS011;6058;48.704;9.474;2023-03-13T04:19:04;7.57;;;2.80;;
11996;SDS011;6058;48.704;9.474;2023-03-13T04:21:31;8.27;;;3.70;;
11996;SDS011;6058;48.704;9.474;2023-03-13T04:23:58;5.50;;;3.20;;
11996;SDS011;6058;48.704;9.474;2023-03-13T04:26:27;6.00;;;2.97;;
11996;SDS011;6058;48.704;9.474;2023-03-13T04:28:55;9.37;;;3.17;;
11996;SDS011;6058;48.704;9.474;2023-03-13T04:31:22;7.33;;;3.67;;
11996;SDS011;6058;48.704;9.474;2023-03-13T04:33:49;3.40;;;2.70;;
11996;SDS011;6058;48.704;9.474;2023-03-13T04:36:16;5.10;;;2.80;;
11996;SDS011;6058;48.704;9.474;2023-03-13T04:38:44;6.57;;;2.87;;
11996;SDS011;6058;48.704;9.474;2023-03-13T04:41:11;5.17;;;2.77;;
11996;SDS011;6058;48.704;9.474;2023-03-13T04:43:39;5.93;;;2.60;;
11996;SDS011;6058;48.704;9.474;2023-03-13T04:46:06;11.70;;;3.30;;
11996;SDS011;6058;48.704;9.474;2023-03-13T04:48:33;5.13;;;2.97;;
11996;SDS011;6058;48.704;9.474;2023-03-13T04:51:01;5.27;;;2.83;;
11996;SDS011;6058;48.704;9.474;2023-03-13T04:53:28;6.03;;;2.97;;
11996;SDS011;6058;48.704;9.474;2023-03-13T04:55:55;6.17;;;2.63;;
11996;SDS011;6058;48.704;9.474;2023-03-13T04:58:22;6.07;;;2.83;;
11996;SDS011;6058;48.704;9.474;2023-03-13T05:00:50;5.60;;;2.63;;
11996;SDS011;6058;48.704;9.474;2023-03-13T05:03:19;7.50;;;2.63;;
11996;SDS011;6058;48.704;9.474;2023-03-13T05:05:46;6.23;;;3.00;;
11996;SDS011;6058;48.704;9.474;2023-03-13T05:08:13;7.43;;;2.67;;
11996;SDS011;6058;48.704;9.474;2023-03-13T05:10:40;5.47;;;2.93;;
11996;SDS011;6058;48.704;9.474;2023-03-13T05:13:07;4.53;;;2.77;;
11996;SDS011;6058;48.704;9.474;2023-03-13T05:15:35;5.13;;;2.73;;
11996;SDS011;6058;48.704;9.474;2023-03-13T05:18:03;4.90;;;2.63;;
11996;SDS011;6058;48.704;9.474;2023-03-13T05:20:30;6.50;;;2.87;;
11996;SDS011;6058;48.704;9.474;2023-03-13T05:22:57;3.93;;;2.80;;
11996;SDS011;6058;48.704;9.474;2023-03-13T05:25:24;5.77;;;3.00;;
11996;SDS011;6058;48.704;9.474;2023-03-13T05:27:52;4.73;;;2.73;;
11996;SDS011;6058;48.704;9.474;2023-03-13T05:30:19;8.80;;;3.10;;
11996;SDS011;6058;48.704;9.474;2023-03-13T05:32:46;6.20;;;2.87;;
11996;SDS011;6058;48.704;9.474;2023-03-13T05:35:14;6.47;;;2.93;;
11996;SDS011;6058;48.704;9.474;2023-03-13T05:37:41;6.73;;;2.87;;
11996;SDS011;6058;48.704;9.474;2023-03-13T05:40:10;4.77;;;2.40;;
11996;SDS011;6058;48.704;9.474;2023-03-13T05:42:37;4.90;;;2.40;;
11996;SDS011;6058;48.704;9.474;2023-03-13T05:45:05;7.27;;;2.53;;
11996;SDS011;6058;48.704;9.474;2023-03-13T05:47:33;4.40;;;2.40;;
11996;SDS011;6058;48.704;9.474;2023-03-13T05:50:00;4.97;;;2.50;;
11996;SDS011;6058;48.704;9.474;2023-03-13T05:52:28;7.10;;;2.87;;
11996;SDS011;6058;48.704;9.474;2023-03-13T05:54:56;8.30;;;3.27;;
11996;SDS011;6058;48.704;9.474;2023-03-13T05:57:23;4.10;;;2.20;;
11996;SDS011;6058;48.704;9.474;2023-03-13T05:59:50;5.83;;;3.10;;
11996;SDS011;6058;48.704;9.474;2023-03-13T06:02:17;6.47;;;3.60;;
11996;SDS011;6058;48.704;9.474;2023-03-13T06:04:44;6.17;;;2.37;;
11996;SDS011;6058;48.704;9.474;2023-03-13T06:07:12;7.37;;;3.17;;
11996;SDS011;6058;48.704;9.474;2023-03-13T06:09:40;8.10;;;3.10;;
11996;SDS011;6058;48.704;9.474;2023-03-13T06:12:08;7.23;;;3.07;;
11996;SDS011;6058;48.704;9.474;2023-03-13T06:14:35;6.90;;;3.10;;
11996;SDS011;6058;48.704;9.474;2023-03-13T06:17:03;6.47;;;3.30;;
11996;SDS011;6058;48.704;9.474;2023-03-13T06:19:30;8.53;;;3.20;;
11996;SDS011;6058;48.704;9.474;2023-03-13T06:21:57;9.30;;;3.67;;
11996;SDS011;6058;48.704;9.474;2023-03-13T06:24:24;5.47;;;2.97;;
11996;SDS011;6058;48.704;9.474;2023-03-13T06:26:53;9.97;;;3.47;;
11996;SDS011;6058;48.704;9.474;2023-03-13T06:29:21;7.00;;;3.30;;
11996;SDS011;6058;48.704;9.474;2023-03-13T06:31:48;7.87;;;3.10;;
11996;SDS011;6058;48.704;9.474;2023-03-13T06:34:16;6.60;;;2.80;;
11996;SDS011;6058;48.704;9.474;2023-03-13T06:36:43;9.87;;;2.87;;
11996;SDS011;6058;48.704;9.474;2023-03-13T06:39:11;6.37;;;2.50;;
11996;SDS011;6058;48.704;9.474;2023-03-13T06:41:38;6.17;;;2.83;;
11996;SDS011;6058;48.704;9.474;2023-03-13T06:44:06;5.10;;;2.50;;
11996;SDS011;6058;48.704;9.474;2023-03-13T06:46:34;5.60;;;2.30;;
11996;SDS011;6058;48.704;9.474;2023-03-13T06:49:01;4.47;;;2.50;;
11996;SDS011;6058;48.704;9.474;2023-03-13T06:51:29;7.73;;;3.00;;
11996;SDS011;6058;48.704;9.474;2023-03-13T06:53:57;7.00;;;3.00;;
11996;SDS011;6058;48.704;9.474;2023-03-13T06:56:24;8.03;;;3.57;;
11996;SDS011;6058;48.704;9.474;2023-03-13T06:58:51;4.17;;;2.47;;
11996;SDS011;6058;48.704;9.474;2023-03-13T07:01:20;3.17;;;1.57;;
11996;SDS011;6058;48.704;9.474;2023-03-13T07:03:47;2.93;;;2.30;;
11996;SDS011;6058;48.704;9.474;2023-03-13T07:06:15;4.47;;;1.90;;
11996;SDS011;6058;48.704;9.474;2023-03-13T07:08:42;3.03;;;2.00;;
11996;SDS011;6058;48.704;9.474;2023-03-13T07:11:10;5.33;;;2.00;;
11996;SDS011;6058;48.704;9.474;2023-03-13T07:13:38;2.00;;;1.00;;
11996;SDS011;6058;48.704;9.474;2023-03-13T07:16:06;3.03;;;1.27;;
11996;SDS011;6058;48.704;9.474;2023-03-13T07:18:41;11.97;;;3.53;;
11996;SDS011;6058;48.704;9.474;2023-03-13T07:21:09;20.17;;;7.07;;
11996;SDS011;6058;48.704;9.474;2023-03-13T07:23:37;4.13;;;1.73;;
11996;SDS011;6058;48.704;9.474;2023-03-13T07:26:05;2.07;;;0.90;;
11996;SDS011;6058;48.704;9.474;2023-03-13T07:28:32;2.23;;;0.80;;
11996;SDS011;6058;48.704;9.474;2023-03-13T07:31:03;0.80;;;0.67;;
11996;SDS011;6058;48.704;9.474;2023-03-13T07:33:30;1.20;;;0.50;;
11996;SDS011;6058;48.704;9.474;2023-03-13T07:35:59;0.50;;;0.50;;
11996;SDS011;6058;48.704;9.474;2023-03-13T07:38:26;1.20;;;0.63;;
11996;SDS011;6058;48.704;9.474;2023-03-13T07:40:54;2.37;;;0.53;;
11996;SDS011;6058;48.704;9.474;2023-03-13T07:43:21;0.47;;;0.47;;
11996;SDS011;6058;48.704;9.474;2023-03-13T07:45:49;0.83;;;0.60;;
11996;SDS011;6058;48.704;9.474;2023-03-13T07:48:24;0.47;;;0.47;;
11996;SDS011;6058;48.704;9.474;2023-03-13T07:50:53;1.43;;;0.60;;
11996;SDS011;6058;48.704;9.474;2023-03-13T07:53:21;0.50;;;0.50;;
11996;SDS011;6058;48.704;9.474;2023-03-13T07:55:52;0.40;;;0.40;;
11996;SDS011;6058;48.704;9.474;2023-03-13T08:00:53;0.50;;;0.50;;
11996;SDS011;6058;48.704;9.474;2023-03-13T08:03:20;0.83;;;0.80;;
11996;SDS011;6058;48.704;9.474;2023-03-13T08:05:47;1.30;;;0.60;;
11996;SDS011;6058;48.704;9.474;2023-03-13T08:08:24;1.23;;;0.80;;
11996;SDS011;6058;48.704;9.474;2023-03-13T08:10:51;4.83;;;0.70;;
11996;SDS011;6058;48.704;9.474;2023-03-13T08:13:18;0.53;;;0.43;;
11996;SDS011;6058;48.704;9.474;2023-03-13T08:15:45;0.87;;;0.70;;
11996;SDS011;6058;48.704;9.474;2023-03-13T08:18:12;0.60;;;0.60;;
11996;SDS011;6058;48.704;9.474;2023-03-13T08:20:40;0.60;;;0.60;;
11996;SDS011;6058;48.704;9.474;2023-03-13T08:23:07;1.57;;;0.70;;
11996;SDS011;6058;48.704;9.474;2023-03-13T08:25:36;2.07;;;0.77;;
11996;SDS011;6058;48.704;9.474;2023-03-13T08:28:03;0.70;;;0.70;;
11996;SDS011;6058;48.704;9.474;2023-03-13T08:30:30;1.03;;;0.70;;
11996;SDS011;6058;48.704;9.474;2023-03-13T08:32:58;0.50;;;0.40;;
11996;SDS011;6058;48.704;9.474;2023-03-13T08:35:25;1.00;;;0.70;;
11996;SDS011;6058;48.704;9.474;2023-03-13T08:37:52;1.33;;;0.80;;
11996;SDS011;6058;48.704;9.474;2023-03-13T08:40:21;0.60;;;0.60;;
11996;SDS011;6058;48.704;9.474;2023-03-13T08:42:49;1.00;;;0.60;;
11996;SDS011;6058;48.704;9.474;2023-03-13T08:45:17;1.40;;;0.43;;
11996;SDS011;6058;48.704;9.474;2023-03-13T08:47:44;0.40;;;0.40;;
11996;SDS011;6058;48.704;9.474;2023-03-13T08:50:11;1.00;;;0.60;;
11996;SDS011;6058;48.704;9.474;2023-03-13T08:52:38;1.03;;;0.63;;
11996;SDS011;6058;48.704;9.474;2023-03-13T08:55:06;0.40;;;0.40;;
11996;SDS011;6058;48.704;9.474;2023-03-13T08:57:33;1.20;;;0.70;;
11996;SDS011;6058;48.704;9.474;2023-03-13T09:00:02;2.57;;;0.60;;
11996;SDS011;6058;48.704;9.474;2023-03-13T09:02:30;0.87;;;0.73;;
11996;SDS011;6058;48.704;9.474;2023-03-13T09:04:57;2.33;;;0.57;;
11996;SDS011;6058;48.704;9.474;2023-03-13T09:07:24;0.60;;;0.60;;
11996;SDS011;6058;48.704;9.474;2023-03-13T09:09:51;0.77;;;0.50;;
11996;SDS011;6058;48.704;9.474;2023-03-13T09:12:18;0.40;;;0.40;;
11996;SDS011;6058;48.704;9.474;2023-03-13T09:14:46;1.90;;;0.40;;
11996;SDS011;6058;48.704;9.474;2023-03-13T09:17:15;0.50;;;0.50;;
11996;SDS011;6058;48.704;9.474;2023-03-13T09:19:42;0.53;;;0.53;;
11996;SDS011;6058;48.704;9.474;2023-03-13T09:22:09;1.17;;;0.60;;
11996;SDS011;6058;48.704;9.474;2023-03-13T09:24:36;0.40;;;0.40;;
11996;SDS011;6058;48.704;9.474;2023-03-13T09:27:05;1.20;;;0.60;;
11996;SDS011;6058;48.704;9.474;2023-03-13T09:29:32;2.10;;;0.50;;
11996;SDS011;6058;48.704;9.474;2023-03-13T09:32:04;1.33;;;0.70;;
11996;SDS011;6058;48.704;9.474;2023-03-13T09:34:32;0.40;;;0.40;;
11996;SDS011;6058;48.704;9.474;2023-03-13T09:37:00;1.70;;;0.53;;
11996;SDS011;6058;48.704;9.474;2023-03-13T09:39:27;0.43;;;0.43;;
11996;SDS011;6058;48.704;9.474;2023-03-13T09:41:57;2.97;;;0.60;;
11996;SDS011;6058;48.704;9.474;2023-03-13T09:44:26;2.70;;;0.70;;
11996;SDS011;6058;48.704;9.474;2023-03-13T09:46:58;1.57;;;0.50;;
11996;SDS011;6058;48.704;9.474;2023-03-13T09:49:28;1.60;;;0.67;;
11996;SDS011;6058;48.704;9.474;2023-03-13T09:51:59;1.83;;;0.67;;
11996;SDS011;6058;48.704;9.474;2023-03-13T09:54:31;0.63;;;0.63;;
11996;SDS011;6058;48.704;9.474;2023-03-13T09:57:02;1.27;;;0.77;;
11996;SDS011;6058;48.704;9.474;2023-03-13T09:59:32;2.27;;;1.00;;
11996;SDS011;6058;48.704;9.474;2023-03-13T10:02:02;0.60;;;0.60;;
11996;SDS011;6058;48.704;9.474;2023-03-13T10:04:31;0.90;;;0.70;;
11996;SDS011;6058;48.704;9.474;2023-03-13T10:07:02;0.70;;;0.63;;
11996;SDS011;6058;48.704;9.474;2023-03-13T10:09:30;0.77;;;0.77;;
11996;SDS011;6058;48.704;9.474;2023-03-13T10:12:02;1.77;;;0.53;;
11996;SDS011;6058;48.704;9.474;2023-03-13T10:14:32;4.40;;;0.90;;
11996;SDS011;6058;48.704;9.474;2023-03-13T10:17:04;0.60;;;0.53;;
11996;SDS011;6058;48.704;9.474;2023-03-13T10:19:34;2.73;;;1.30;;
11996;SDS011;6058;48.704;9.474;2023-03-13T10:22:10;2.60;;;1.13;;
11996;SDS011;6058;48.704;9.474;2023-03-13T10:24:39;0.80;;;0.80;;
11996;SDS011;6058;48.704;9.474;2023-03-13T10:27:08;0.60;;;0.60;;
11996;SDS011;6058;48.704;9.474;2023-03-13T10:29:35;0.80;;;0.80;;
11996;SDS011;6058;48.704;9.474;2023-03-13T10:32:03;1.10;;;1.10;;
11996;SDS011;6058;48.704;9.474;2023-03-13T10:34:43;4.87;;;1.17;;
11996;SDS011;6058;48.704;9.474;2023-03-13T10:37:12;1.87;;;0.93;;
11996;SDS011;6058;48.704;9.474;2023-03-13T10:39:40;1.20;;;1.10;;
11996;SDS011;6058;48.704;9.474;2023-03-13T10:42:08;1.37;;;1.00;;
11996;SDS011;6058;48.704;9.474;2023-03-13T10:44:35;1.23;;;1.13;;
11996;SDS011;6058;48.704;9.474;2023-03-13T10:49:33;1.40;;;1.20;;
11996;SDS011;6058;48.704;9.474;2023-03-13T10:52:25;4.20;;;1.30;;
11996;SDS011;6058;48.704;9.474;2023-03-13T10:54:55;2.43;;;1.10;;
11996;SDS011;6058;48.704;9.474;2023-03-13T10:57:27;1.90;;;1.13;;
11996;SDS011;6058;48.704;9.474;2023-03-13T10:59:54;2.73;;;1.70;;
11996;SDS011;6058;48.704;9.474;2023-03-13T11:02:24;1.00;;;1.00;;
11996;SDS011;6058;48.704;9.474;2023-03-13T11:04:52;1.40;;;1.10;;
11996;SDS011;6058;48.704;9.474;2023-03-13T11:07:24;2.47;;;1.30;;
11996;SDS011;6058;48.704;9.474;2023-03-13T11:09:59;2.20;;;1.03;;
11996;SDS011;6058;48.704;9.474;2023-03-13T11:12:27;4.27;;;1.60;;
11996;SDS011;6058;48.704;9.474;2023-03-13T11:14:58;3.63;;;1.10;;
11996;SDS011;6058;48.704;9.474;2023-03-13T11:17:28;1.27;;;1.07;;
11996;SDS011;6058;48.704;9.474;2023-03-13T11:19:58;1.93;;;1.13;;
11996;SDS011;6058;48.704;9.474;2023-03-13T11:22:34;1.40;;;1.20;;
11996;SDS011;6058;48.704;9.474;2023-03-13T11:25:15;2.20;;;1.10;;
11996;SDS011;6058;48.704;9.474;2023-03-13T11:27:45;4.67;;;1.17;;
11996;SDS011;6058;48.704;9.474;2023-03-13T11:30:15;2.03;;;0.97;;
11996;SDS011;6058;48.704;9.474;2023-03-13T11:32:47;2.00;;;1.30;;
11996;SDS011;6058;48.704;9.474;2023-03-13T11:35:22;1.47;;;1.30;;
11996;SDS011;6058;48.704;9.474;2023-03-13T11:37:54;2.33;;;1.40;;
11996;SDS011;6058;48.704;9.474;2023-03-13T11:40:23;1.60;;;1.20;;
11996;SDS011;6058;48.704;9.474;2023-03-13T11:43:02;1.03;;;1.03;;
11996;SDS011;6058;48.704;9.474;2023-03-13T11:45:41;1.07;;;1.07;;
11996;SDS011;6058;48.704;9.474;2023-03-13T11:48:12;2.00;;;1.00;;
11996;SDS011;6058;48.704;9.474;2023-03-13T11:50:45;0.90;;;0.90;;
11996;SDS011;6058;48.704;9.474;2023-03-13T11:53:23;2.00;;;0.90;;
11996;SDS011;6058;48.704;9.474;2023-03-13T11:55:55;1.70;;;0.80;;
11996;SDS011;6058;48.704;9.474;2023-03-13T11:58:45;1.83;;;0.83;;
11996;SDS011;6058;48.704;9.474;2023-03-13T12:01:15;1.23;;;1.13;;
11996;SDS011;6058;48.704;9.474;2023-03-13T12:03:52;0.87;;;0.87;;
11996;SDS011;6058;48.704;9.474;2023-03-13T12:06:23;1.20;;;1.10;;
11996;SDS011;6058;48.704;9.474;2023-03-13T12:08:53;0.80;;;0.80;;
11996;SDS011;6058;48.704;9.474;2023-03-13T12:11:23;2.03;;;0.90;;
11996;SDS011;6058;48.704;9.474;2023-03-13T12:13:54;1.43;;;0.83;;
11996;SDS011;6058;48.704;9.474;2023-03-13T12:16:24;1.03;;;0.97;;
11996;SDS011;6058;48.704;9.474;2023-03-13T12:18:52;1.63;;;0.97;;
11996;SDS011;6058;48.704;9.474;2023-03-13T12:21:20;1.73;;;1.13;;
11996;SDS011;6058;48.704;9.474;2023-03-13T12:23:49;3.40;;;0.90;;
11996;SDS011;6058;48.704;9.474;2023-03-13T12:26:21;2.43;;;1.43;;
11996;SDS011;6058;48.704;9.474;2023-03-13T12:28:50;1.60;;;0.90;;
11996;SDS011;6058;48.704;9.474;2023-03-13T12:31:25;2.13;;;1.07;;
11996;SDS011;6058;48.704;9.474;2023-03-13T12:33:55;2.80;;;1.00;;
11996;SDS011;6058;48.704;9.474;2023-03-13T12:36:25;2.27;;;1.00;;
11996;SDS011;6058;48.704;9.474;2023-03-13T12:39:00;1.50;;;1.00;;
11996;SDS011;6058;48.704;9.474;2023-03-13T12:41:31;2.10;;;0.97;;
11996;SDS011;6058;48.704;9.474;2023-03-13T12:43:59;2.97;;;1.13;;
11996;SDS011;6058;48.704;9.474;2023-03-13T12:46:32;2.73;;;1.10;;
11996;SDS011;6058;48.704;9.474;2023-03-13T12:49:03;2.73;;;1.10;;
11996;SDS011;6058;48.704;9.474;2023-03-13T12:51:37;0.97;;;0.97;;
11996;SDS011;6058;48.704;9.474;2023-03-13T12:54:17;1.63;;;1.00;;
11996;SDS011;6058;48.704;9.474;2023-03-13T12:56:55;1.10;;;1.00;;
11996;SDS011;6058;48.704;9.474;2023-03-13T12:59:27;1.00;;;0.90;;
11996;SDS011;6058;48.704;9.474;2023-03-13T13:01:55;1.00;;;0.93;;
11996;SDS011;6058;48.704;9.474;2023-03-13T13:04:23;1.53;;;1.07;;
11996;SDS011;6058;48.704;9.474;2023-03-13T13:06:52;2.13;;;0.90;;
11996;SDS011;6058;48.704;9.474;2023-03-13T13:09:21;1.47;;;1.17;;
11996;SDS011;6058;48.704;9.474;2023-03-13T13:11:49;2.20;;;0.90;;
11996;SDS011;6058;48.704;9.474;2023-03-13T13:17:12;0.90;;;0.90;;
11996;SDS011;6058;48.704;9.474;2023-03-13T13:19:42;2.00;;;1.37;;
11996;SDS011;6058;48.704;9.474;2023-03-13T13:24:57;0.97;;;0.90;;
11996;SDS011;6058;48.704;9.474;2023-03-13T13:32:53;4.40;;;1.33;;
11996;SDS011;6058;48.704;9.474;2023-03-13T13:35:22;2.57;;;1.20;;
11996;SDS011;6058;48.704;9.474;2023-03-13T13:37:49;0.80;;;0.80;;
11996;SDS011;6058;48.704;9.474;2023-03-13T13:40:22;1.40;;;1.03;;
11996;SDS011;6058;48.704;9.474;2023-03-13T13:42:50;5.30;;;1.03;;
11996;SDS011;6058;48.704;9.474;2023-03-13T13:45:22;4.90;;;1.03;;
11996;SDS011;6058;48.704;9.474;2023-03-13T13:47:50;0.83;;;0.70;;
11996;SDS011;6058;48.704;9.474;2023-03-13T13:50:39;2.20;;;1.20;;
11996;SDS011;6058;48.704;9.474;2023-03-13T13:53:30;2.13;;;1.20;;
11996;SDS011;6058;48.704;9.474;2023-03-13T13:55:57;1.83;;;1.20;;
11996;SDS011;6058;48.704;9.474;2023-03-13T13:58:27;3.50;;;1.10;;
11996;SDS011;6058;48.704;9.474;2023-03-13T14:00:57;1.10;;;1.00;;
11996;SDS011;6058;48.704;9.474;2023-03-13T14:03:26;2.57;;;1.40;;
11996;SDS011;6058;48.704;9.474;2023-03-13T14:05:55;1.50;;;0.93;;
11996;SDS011;6058;48.704;9.474;2023-03-13T14:08:24;1.47;;;1.17;;
11996;SDS011;6058;48.704;9.474;2023-03-13T14:10:53;2.60;;;0.90;;
11996;SDS011;6058;48.704;9.474;2023-03-13T14:13:30;2.53;;;0.90;;
11996;SDS011;6058;48.704;9.474;2023-03-13T14:16:08;2.70;;;0.83;;
11996;SDS011;6058;48.704;9.474;2023-03-13T14:18:40;1.80;;;1.23;;
11996;SDS011;6058;48.704;9.474;2023-03-13T14:21:09;1.17;;;0.80;;
11996;SDS011;6058;48.704;9.474;2023-03-13T14:23:39;1.23;;;0.90;;
11996;SDS011;6058;48.704;9.474;2023-03-13T14:26:14;1.00;;;0.87;;
11996;SDS011;6058;48.704;9.474;2023-03-13T14:28:43;1.33;;;1.10;;
11996;SDS011;6058;48.704;9.474;2023-03-13T14:31:22;3.90;;;0.83;;
11996;SDS011;6058;48.704;9.474;2023-03-13T14:33:50;2.00;;;0.90;;
11996;SDS011;6058;48.704;9.474;2023-03-13T14:36:19;2.93;;;2.00;;
11996;SDS011;6058;48.704;9.474;2023-03-13T14:38:49;1.93;;;0.80;;
11996;SDS011;6058;48.704;9.474;2023-03-13T14:41:26;1.47;;;0.80;;
11996;SDS011;6058;48.704;9.474;2023-03-13T14:44:00;1.70;;;0.53;;
11996;SDS011;6058;48.704;9.474;2023-03-13T14:46:29;2.50;;;0.77;;
11996;SDS011;6058;48.704;9.474;2023-03-13T14:49:03;1.87;;;0.80;;
11996;SDS011;6058;48.704;9.474;2023-03-13T14:51:32;2.93;;;0.87;;
11996;SDS011;6058;48.704;9.474;2023-03-13T14:54:03;1.83;;;0.80;;
11996;SDS011;6058;48.704;9.474;2023-03-13T14:56:31;2.07;;;1.10;;
11996;SDS011;6058;48.704;9.474;2023-03-13T14:59:06;2.17;;;1.03;;
11996;SDS011;6058;48.704;9.474;2023-03-13T15:01:33;2.30;;;0.80;;
11996;SDS011;6058;48.704;9.474;2023-03-13T15:04:00;4.50;;;0.93;;
11996;SDS011;6058;48.704;9.474;2023-03-13T15:06:28;2.20;;;0.97;;
11996;SDS011;6058;48.704;9.474;2023-03-13T15:09:15;1.70;;;0.80;;
11996;SDS011;6058;48.704;9.474;2023-03-13T15:11:44;2.53;;;0.90;;
11996;SDS011;6058;48.704;9.474;2023-03-13T15:14:30;3.67;;;0.80;;
11996;SDS011;6058;48.704;9.474;2023-03-13T15:16:57;1.87;;;1.10;;
11996;SDS011;6058;48.704;9.474;2023-03-13T15:19:25;1.13;;;0.77;;
11996;SDS011;6058;48.704;9.474;2023-03-13T15:21:52;3.07;;;0.80;;
11996;SDS011;6058;48.704;9.474;2023-03-13T15:24:21;4.17;;;0.70;;
11996;SDS011;6058;48.704;9.474;2023-03-13T15:26:48;2.83;;;0.90;;
11996;SDS011;6058;48.704;9.474;2023-03-13T15:29:15;5.20;;;1.00;;
11996;SDS011;6058;48.704;9.474;2023-03-13T15:31:42;1.03;;;0.77;;